Time;durP1;ratioP1;P1;durP2;ratioP2;P2;SDS_P1;SDS_P2;PMS_P1;PMS_P2;Temp;Humidity;BMP_temperature;BMP_pressure;BME280_temperature;BME280_humidity;BME280_pressure;Samples;Min_cycle;Max_cycle;Signal;HPM_P1;HPM_P2
2021/03/27 00:00:28;;;;;;;8.52;3.72;;;;;;;;;;10412319;28;20049;-63
2021/03/27 00:05:34;;;;;;;6.68;3.28;;;;;;;;;;10395077;28;20040;-62
2021/03/27 00:10:36;;;;;;;6.85;3.30;;;;;;;;;;10387129;28;20047;-61
2021/03/27 00:15:35;;;;;;;4.82;2.63;;;;;;;;;;10410618;28;20103;-63
2021/03/27 00:20:33;;;;;;;4.32;2.83;;;;;;;;;;10409892;28;20497;-63
2021/03/27 00:25:33;;;;;;;5.68;3.05;;;;;;;;;;10411590;28;20067;-62
2021/03/27 00:30:36;;;;;;;10.70;3.50;;;;;;;;;;10408040;28;20028;-63
2021/03/27 00:35:35;;;;;;;5.35;3.42;;;;;;;;;;10412681;28;20954;-63
2021/03/27 00:40:34;;;;;;;6.50;2.90;;;;;;;;;;10416978;28;20493;-63
2021/03/27 00:45:37;;;;;;;5.45;2.58;;;;;;;;;;10412316;28;20032;-62
2021/03/27 00:50:37;;;;;;;5.10;2.95;;;;;;;;;;10391013;28;20060;-62
2021/03/27 00:55:45;;;;;;;5.57;2.95;;;;;;;;;;10406828;28;20040;-63
2021/03/27 01:00:45;;;;;;;7.65;3.55;;;;;;;;;;10391572;28;20032;-63
2021/03/27 01:05:52;;;;;;;11.48;2.78;;;;;;;;;;10411897;28;20098;-62
2021/03/27 01:11:11;;;;;;;7.00;3.42;;;;;;;;;;10408145;28;20040;-63
2021/03/27 01:16:24;;;;;;;6.47;3.22;;;;;;;;;;10412542;28;20488;-64
2021/03/27 01:21:27;;;;;;;10.45;2.97;;;;;;;;;;10396708;28;20507;-62
2021/03/27 01:26:26;;;;;;;4.75;3.47;;;;;;;;;;10393663;28;20055;-63
2021/03/27 01:31:30;;;;;;;8.35;4.43;;;;;;;;;;10404905;28;20040;-63
2021/03/27 01:36:36;;;;;;;6.63;3.35;;;;;;;;;;10406248;28;20055;-62
2021/03/27 01:41:52;;;;;;;6.15;3.20;;;;;;;;;;10411579;28;20063;-63
2021/03/27 01:47:07;;;;;;;7.68;3.70;;;;;;;;;;10404931;28;20038;-63
2021/03/27 01:52:23;;;;;;;6.65;3.30;;;;;;;;;;10418812;28;20032;-63
2021/03/27 01:57:20;;;;;;;4.93;3.10;;;;;;;;;;10410460;28;20115;-63
2021/03/27 02:02:33;;;;;;;3.33;2.20;;;;;;;;;;10405864;28;20123;-63
2021/03/27 02:07:49;;;;;;;6.63;3.92;;;;;;;;;;10405257;28;20048;-62
2021/03/27 02:12:53;;;;;;;8.90;3.85;;;;;;;;;;10402983;28;20066;-62
2021/03/27 02:17:55;;;;;;;6.13;3.55;;;;;;;;;;10384476;28;20043;-62
2021/03/27 02:22:58;;;;;;;5.53;3.42;;;;;;;;;;10363251;28;20047;-62
2021/03/27 02:28:01;;;;;;;3.97;2.72;;;;;;;;;;10370561;28;20129;-61
2021/03/27 02:33:08;;;;;;;3.72;1.98;;;;;;;;;;10381336;28;20040;-62
2021/03/27 02:38:11;;;;;;;3.63;1.52;;;;;;;;;;10394957;28;20040;-62
2021/03/27 02:43:16;;;;;;;1.67;1.00;;;;;;;;;;10406552;28;20036;-63
2021/03/27 02:48:32;;;;;;;1.75;1.05;;;;;;;;;;10410945;28;21028;-62
2021/03/27 02:53:48;;;;;;;1.38;0.65;;;;;;;;;;10414552;28;20040;-60
2021/03/27 02:58:52;;;;;;;1.15;0.40;;;;;;;;;;10416923;28;20033;-61
2021/03/27 03:03:51;;;;;;;2.75;0.75;;;;;;;;;;10424231;28;20032;-62
2021/03/27 03:09:04;;;;;;;0.65;0.63;;;;;;;;;;10414972;28;21630;-62
2021/03/27 03:14:40;;;;;;;2.38;0.70;;;;;;;;;;10414940;28;20518;-62
2021/03/27 03:19:44;;;;;;;0.75;0.40;;;;;;;;;;10261815;28;20384;-62
2021/03/27 03:24:56;;;;;;;1.48;0.70;;;;;;;;;;10394940;28;20567;-60
2021/03/27 03:30:02;;;;;;;0.90;0.50;;;;;;;;;;10418608;28;20031;-61
2021/03/27 03:35:14;;;;;;;0.50;0.50;;;;;;;;;;10417145;28;20040;-61
2021/03/27 03:40:20;;;;;;;0.50;0.50;;;;;;;;;;10421847;28;20028;-61
2021/03/27 03:45:36;;;;;;;0.25;0.25;;;;;;;;;;10404846;28;20097;-61
2021/03/27 03:50:47;;;;;;;0.35;0.35;;;;;;;;;;10396794;28;20035;-61
2021/03/27 03:55:58;;;;;;;0.75;0.50;;;;;;;;;;10403792;28;20588;-61
2021/03/27 04:01:11;;;;;;;0.73;0.50;;;;;;;;;;10424615;28;20036;-61
2021/03/27 04:06:12;;;;;;;0.75;0.43;;;;;;;;;;10420461;28;20447;-60
2021/03/27 04:11:19;;;;;;;0.43;0.43;;;;;;;;;;10437026;28;20028;-61
2021/03/27 04:16:22;;;;;;;0.75;0.50;;;;;;;;;;10389636;28;20600;-62
2021/03/27 04:21:31;;;;;;;0.22;0.22;;;;;;;;;;10412907;28;20139;-63
2021/03/27 04:26:35;;;;;;;1.05;0.60;;;;;;;;;;10416646;28;20032;-61
2021/03/27 04:31:40;;;;;;;0.20;0.20;;;;;;;;;;10406966;28;20349;-62
2021/03/27 04:36:37;;;;;;;0.40;0.30;;;;;;;;;;10395766;28;20036;-62
2021/03/27 04:41:50;;;;;;;1.00;0.40;;;;;;;;;;10410764;28;20480;-61
2021/03/27 04:46:54;;;;;;;0.85;0.75;;;;;;;;;;10396704;28;20036;-60
2021/03/27 04:51:57;;;;;;;0.50;0.50;;;;;;;;;;10414765;28;20486;-61
2021/03/27 04:57:07;;;;;;;0.45;0.45;;;;;;;;;;10417094;28;20038;-61
2021/03/27 05:02:19;;;;;;;0.93;0.60;;;;;;;;;;10414499;28;20128;-61
2021/03/27 05:07:18;;;;;;;0.60;0.60;;;;;;;;;;10413448;28;20132;-61
2021/03/27 05:12:38;;;;;;;4.28;0.57;;;;;;;;;;10398247;28;20032;-60
2021/03/27 05:17:45;;;;;;;0.70;0.70;;;;;;;;;;10391409;28;20118;-61
2021/03/27 05:22:57;;;;;;;1.20;0.60;;;;;;;;;;10406002;28;20032;-62
2021/03/27 05:28:05;;;;;;;1.65;1.02;;;;;;;;;;10385399;28;20036;-63
2021/03/27 05:33:25;;;;;;;1.83;1.43;;;;;;;;;;10408691;28;20024;-62
2021/03/27 05:38:40;;;;;;;2.63;1.17;;;;;;;;;;10397080;28;20559;-63
2021/03/27 05:43:41;;;;;;;1.35;0.82;;;;;;;;;;10412515;28;20134;-62
2021/03/27 05:48:47;;;;;;;2.67;0.75;;;;;;;;;;10402950;28;20024;-63
2021/03/27 05:54:03;;;;;;;6.95;1.27;;;;;;;;;;10408499;28;20105;-62
2021/03/27 05:59:19;;;;;;;3.95;0.50;;;;;;;;;;10406014;28;20031;-64
2021/03/27 06:04:21;;;;;;;1.15;0.65;;;;;;;;;;10392546;28;20040;-62
2021/03/27 06:09:25;;;;;;;1.75;0.70;;;;;;;;;;10394698;28;20039;-63
2021/03/27 06:14:22;;;;;;;3.50;1.33;;;;;;;;;;10422260;28;20084;-64
2021/03/27 06:19:22;;;;;;;2.83;0.93;;;;;;;;;;10394423;28;20032;-63
2021/03/27 06:24:22;;;;;;;2.72;1.52;;;;;;;;;;10401663;28;20042;-62
2021/03/27 06:29:20;;;;;;;4.65;1.23;;;;;;;;;;10418334;28;20121;-61
2021/03/27 06:34:17;;;;;;;7.55;1.85;;;;;;;;;;10402354;28;20131;-63
2021/03/27 06:39:15;;;;;;;5.40;2.10;;;;;;;;;;10396809;28;20036;-62
2021/03/27 06:44:12;;;;;;;6.93;2.30;;;;;;;;;;10389513;28;20454;-63
2021/03/27 06:49:16;;;;;;;6.80;2.40;;;;;;;;;;10390669;28;20046;-64
2021/03/27 06:54:25;;;;;;;4.50;1.85;;;;;;;;;;10414054;28;20039;-63
2021/03/27 06:59:28;;;;;;;3.33;1.90;;;;;;;;;;10422937;28;20035;-64
2021/03/27 07:04:31;;;;;;;4.75;1.95;;;;;;;;;;10397055;28;20036;-63
2021/03/27 07:09:47;;;;;;;3.25;1.70;;;;;;;;;;10409116;28;20096;-65
2021/03/27 07:14:54;;;;;;;5.45;2.40;;;;;;;;;;10416217;28;20536;-62
2021/03/27 07:20:26;;;;;;;6.35;3.55;;;;;;;;;;10415519;28;20028;-63
2021/03/27 07:25:42;;;;;;;9.52;3.90;;;;;;;;;;10311118;28;20130;-63
2021/03/27 07:30:56;;;;;;;5.80;2.95;;;;;;;;;;10393118;28;20037;-63
2021/03/27 07:35:56;;;;;;;7.85;3.28;;;;;;;;;;10412486;28;20040;-63
2021/03/27 07:41:18;;;;;;;4.05;2.63;;;;;;;;;;10397726;28;20028;-63
2021/03/27 07:46:15;;;;;;;5.97;3.17;;;;;;;;;;10406185;28;20078;-62
2021/03/27 07:51:13;;;;;;;5.10;2.50;;;;;;;;;;10387952;28;20024;-63
2021/03/27 07:56:13;;;;;;;11.40;2.93;;;;;;;;;;10394776;28;20429;-62
2021/03/27 08:01:29;;;;;;;4.10;2.20;;;;;;;;;;10400572;28;20114;-62
2021/03/27 08:06:32;;;;;;;7.88;3.13;;;;;;;;;;10412786;28;20043;-62
2021/03/27 08:11:48;;;;;;;4.57;1.50;;;;;;;;;;10392021;28;20088;-62
2021/03/27 08:17:04;;;;;;;5.78;2.08;;;;;;;;;;10406121;28;20043;-62
2021/03/27 08:22:01;;;;;;;4.50;2.42;;;;;;;;;;10398398;28;20036;-63
2021/03/27 08:27:04;;;;;;;2.53;1.60;;;;;;;;;;10419845;28;20027;-63
2021/03/27 08:32:05;;;;;;;3.20;1.63;;;;;;;;;;10398495;28;20569;-65
2021/03/27 08:37:21;;;;;;;4.32;1.35;;;;;;;;;;10383781;28;20051;-64
2021/03/27 08:42:30;;;;;;;3.50;0.88;;;;;;;;;;10406414;28;20036;-65
2021/03/27 08:47:43;;;;;;;2.05;0.55;;;;;;;;;;10391262;28;20040;-64
2021/03/27 08:53:03;;;;;;;0.98;0.73;;;;;;;;;;10406109;28;20127;-64
2021/03/27 08:58:30;;;;;;;5.95;0.82;;;;;;;;;;10392065;28;20043;-64
2021/03/27 09:03:46;;;;;;;2.70;1.42;;;;;;;;;;10321554;28;20442;-64
2021/03/27 09:08:46;;;;;;;1.85;0.90;;;;;;;;;;10394229;28;20391;-65
2021/03/27 09:14:02;;;;;;;1.65;0.77;;;;;;;;;;10388369;28;20068;-63
2021/03/27 09:19:03;;;;;;;1.15;0.47;;;;;;;;;;10400765;28;20036;-64
2021/03/27 09:24:13;;;;;;;6.10;1.20;;;;;;;;;;10399414;28;20112;-65
2021/03/27 09:29:20;;;;;;;0.40;0.40;;;;;;;;;;10378545;28;20032;-63
2021/03/27 09:34:17;;;;;;;0.80;0.43;;;;;;;;;;10412175;28;20450;-63
2021/03/27 09:39:25;;;;;;;4.03;0.67;;;;;;;;;;10410105;28;20115;-64
2021/03/27 09:44:52;;;;;;;0.40;0.40;;;;;;;;;;10396514;28;20036;-63
2021/03/27 09:49:49;;;;;;;1.13;0.60;;;;;;;;;;10385101;28;20127;-64
2021/03/27 09:54:48;;;;;;;2.87;0.60;;;;;;;;;;10416708;28;20458;-64
2021/03/27 09:59:47;;;;;;;3.45;0.77;;;;;;;;;;10381347;28;20497;-64
2021/03/27 10:04:50;;;;;;;5.18;0.98;;;;;;;;;;10401823;28;20086;-63
2021/03/27 10:09:55;;;;;;;2.58;0.70;;;;;;;;;;10402206;28;20078;-64
2021/03/27 10:15:01;;;;;;;10.45;1.10;;;;;;;;;;10403814;28;20044;-64
2021/03/27 10:20:04;;;;;;;2.67;1.08;;;;;;;;;;10400980;28;20032;-63
2021/03/27 10:25:08;;;;;;;1.90;1.17;;;;;;;;;;10395108;28;20040;-63
2021/03/27 10:30:15;;;;;;;4.38;1.27;;;;;;;;;;10399989;28;20118;-63
2021/03/27 10:35:31;;;;;;;6.97;1.60;;;;;;;;;;10407843;28;20036;-64
2021/03/27 10:40:49;;;;;;;5.32;1.92;;;;;;;;;;10405063;28;20076;-63
2021/03/27 10:46:05;;;;;;;7.25;2.15;;;;;;;;;;10412290;28;20406;-64
2021/03/27 10:51:19;;;;;;;10.18;3.63;;;;;;;;;;10410331;28;20025;-64
2021/03/27 10:56:16;;;;;;;12.63;3.03;;;;;;;;;;10387850;28;20044;-64
2021/03/27 11:01:14;;;;;;;12.87;2.80;;;;;;;;;;10379613;28;20545;-64
2021/03/27 11:06:18;;;;;;;7.77;2.03;;;;;;;;;;10389092;28;20146;-64
2021/03/27 11:11:34;;;;;;;14.65;2.22;;;;;;;;;;10369673;28;21819;-62
2021/03/27 11:16:34;;;;;;;12.55;2.60;;;;;;;;;;10403005;28;20028;-65
2021/03/27 11:21:51;;;;;;;7.90;2.47;;;;;;;;;;10385472;28;20973;-64
2021/03/27 11:27:01;;;;;;;16.85;2.80;;;;;;;;;;10394755;28;20536;-64
2021/03/27 11:32:07;;;;;;;4.38;2.15;;;;;;;;;;10371838;28;20492;-63
2021/03/27 11:37:26;;;;;;;10.18;2.60;;;;;;;;;;10394000;28;20060;-63
2021/03/27 11:42:36;;;;;;;10.75;2.53;;;;;;;;;;10380257;28;20036;-64
2021/03/27 11:47:46;;;;;;;6.88;1.90;;;;;;;;;;10381221;28;20052;-64
2021/03/27 11:52:50;;;;;;;4.75;1.75;;;;;;;;;;10393746;28;20670;-64
2021/03/27 11:57:50;;;;;;;6.85;2.60;;;;;;;;;;10378577;28;20036;-64
2021/03/27 12:02:57;;;;;;;11.07;1.92;;;;;;;;;;10384866;28;20163;-61
2021/03/27 12:08:07;;;;;;;10.85;3.05;;;;;;;;;;10393863;28;20051;-62
2021/03/27 12:13:14;;;;;;;7.13;2.30;;;;;;;;;;10389103;28;20084;-61
2021/03/27 12:18:14;;;;;;;9.38;2.50;;;;;;;;;;10389888;28;20396;-63
2021/03/27 12:23:16;;;;;;;12.43;2.50;;;;;;;;;;10397557;28;20039;-62
2021/03/27 12:28:23;;;;;;;7.63;2.40;;;;;;;;;;10387690;28;20039;-62
2021/03/27 12:33:31;;;;;;;11.68;1.85;;;;;;;;;;10392045;28;20040;-63
2021/03/27 12:38:34;;;;;;;12.47;2.27;;;;;;;;;;10382080;28;20035;-62
2021/03/27 12:43:33;;;;;;;9.63;2.63;;;;;;;;;;10394007;28;20573;-61
2021/03/27 12:48:41;;;;;;;17.83;2.88;;;;;;;;;;10395886;28;20048;-60
2021/03/27 12:53:57;;;;;;;6.53;1.90;;;;;;;;;;10380369;28;20055;-62
2021/03/27 12:59:14;;;;;;;9.88;2.47;;;;;;;;;;10399697;28;20566;-61
2021/03/27 13:04:21;;;;;;;8.95;1.95;;;;;;;;;;10388426;28;20029;-61
2021/03/27 13:09:36;;;;;;;4.97;1.85;;;;;;;;;;10402580;28;20047;-62
2021/03/27 13:14:39;;;;;;;12.25;2.92;;;;;;;;;;10393142;28;20120;-61
2021/03/27 13:19:57;;;;;;;9.75;2.42;;;;;;;;;;10396080;28;20041;-60
2021/03/27 13:24:57;;;;;;;10.18;2.13;;;;;;;;;;10409681;28;20405;-62
2021/03/27 13:30:10;;;;;;;10.15;1.67;;;;;;;;;;10402687;28;20419;-61
2021/03/27 13:35:08;;;;;;;10.75;2.15;;;;;;;;;;10420149;28;20059;-62
2021/03/27 13:40:14;;;;;;;8.77;1.63;;;;;;;;;;10397708;28;20111;-64
2021/03/27 13:45:34;;;;;;;7.82;2.22;;;;;;;;;;10415259;28;20040;-62
2021/03/27 13:50:31;;;;;;;8.05;2.13;;;;;;;;;;10405522;28;20452;-60
2021/03/27 13:55:34;;;;;;;4.07;1.30;;;;;;;;;;10375616;28;20032;-62
2021/03/27 14:00:32;;;;;;;2.78;1.40;;;;;;;;;;10394652;28;20040;-61
2021/03/27 14:05:35;;;;;;;9.23;1.93;;;;;;;;;;10386294;28;20436;-63
2021/03/27 14:10:47;;;;;;;5.97;2.33;;;;;;;;;;10378803;28;20040;-62
2021/03/27 14:15:48;;;;;;;6.28;1.55;;;;;;;;;;10373876;28;20784;-60
2021/03/27 14:20:48;;;;;;;5.95;1.45;;;;;;;;;;10391866;28;20039;-62
2021/03/27 14:26:11;;;;;;;3.90;1.23;;;;;;;;;;10397694;28;20029;-61
2021/03/27 14:31:11;;;;;;;1.55;0.75;;;;;;;;;;10398102;28;20039;-61
2021/03/27 14:36:15;;;;;;;3.22;1.20;;;;;;;;;;10384207;28;20398;-61
2021/03/27 14:41:31;;;;;;;5.40;0.73;;;;;;;;;;10381385;28;20414;-61
2021/03/27 14:46:44;;;;;;;3.95;1.58;;;;;;;;;;10398354;28;20442;-60
2021/03/27 14:51:41;;;;;;;6.35;1.70;;;;;;;;;;10400929;28;20044;-61
2021/03/27 14:56:43;;;;;;;5.33;1.17;;;;;;;;;;10407354;28;20033;-62
2021/03/27 15:01:45;;;;;;;5.70;0.88;;;;;;;;;;10391682;28;20826;-61
2021/03/27 15:06:45;;;;;;;9.35;1.27;;;;;;;;;;10400548;28;20052;-60
2021/03/27 15:11:51;;;;;;;4.85;0.90;;;;;;;;;;10400836;28;20523;-61
2021/03/27 15:16:48;;;;;;;1.83;0.98;;;;;;;;;;10399924;28;20040;-61
2021/03/27 15:21:52;;;;;;;7.13;1.23;;;;;;;;;;10396968;28;20037;-60
2021/03/27 15:27:16;;;;;;;3.85;1.17;;;;;;;;;;10400573;28;20402;-62
2021/03/27 15:32:34;;;;;;;12.27;1.30;;;;;;;;;;10390219;28;20040;-61
2021/03/27 15:37:37;;;;;;;7.20;1.70;;;;;;;;;;10378944;28;20028;-61
2021/03/27 15:42:53;;;;;;;6.93;1.60;;;;;;;;;;10386719;28;20045;-63
2021/03/27 15:47:55;;;;;;;7.15;1.27;;;;;;;;;;10380687;28;20047;-62
2021/03/27 15:52:54;;;;;;;5.00;1.00;;;;;;;;;;10384472;28;20454;-61
2021/03/27 15:57:53;;;;;;;3.60;1.30;;;;;;;;;;10396462;28;20481;-61
2021/03/27 16:02:58;;;;;;;1.65;1.02;;;;;;;;;;10374483;28;20047;-62
2021/03/27 16:07:57;;;;;;;4.32;1.08;;;;;;;;;;10404033;28;20763;-62
2021/03/27 16:13:17;;;;;;;3.85;1.35;;;;;;;;;;10383451;28;20044;-62
2021/03/27 16:18:33;;;;;;;2.53;1.00;;;;;;;;;;10377285;28;20524;-63
2021/03/27 16:23:40;;;;;;;3.85;0.80;;;;;;;;;;10394473;28;20068;-63
2021/03/27 16:28:52;;;;;;;8.73;1.15;;;;;;;;;;10386035;28;20037;-63
2021/03/27 16:33:58;;;;;;;6.18;2.10;;;;;;;;;;10392567;28;20466;-62
2021/03/27 16:39:17;;;;;;;7.88;2.60;;;;;;;;;;10394989;28;20089;-62
2021/03/27 16:44:14;;;;;;;6.25;1.92;;;;;;;;;;10389761;28;20052;-63
2021/03/27 16:49:26;;;;;;;6.77;1.27;;;;;;;;;;10390719;28;20028;-63
2021/03/27 16:54:23;;;;;;;5.38;1.30;;;;;;;;;;10390744;28;20197;-64
2021/03/27 16:59:40;;;;;;;9.73;1.57;;;;;;;;;;10382762;28;20221;-63
2021/03/27 17:04:51;;;;;;;5.03;1.17;;;;;;;;;;10388435;28;20036;-62
2021/03/27 17:10:09;;;;;;;7.93;1.13;;;;;;;;;;10382307;28;20397;-63
2021/03/27 17:15:07;;;;;;;9.07;1.05;;;;;;;;;;10380205;28;20064;-63
2021/03/27 17:20:04;;;;;;;5.57;1.17;;;;;;;;;;10400409;28;20139;-62
2021/03/27 17:25:02;;;;;;;8.60;1.03;;;;;;;;;;10394539;28;20047;-63
2021/03/27 17:30:15;;;;;;;6.80;1.10;;;;;;;;;;10387317;28;20039;-64
2021/03/27 17:35:26;;;;;;;2.45;1.25;;;;;;;;;;10391177;28;20063;-63
2021/03/27 17:40:30;;;;;;;1.17;0.55;;;;;;;;;;10385851;28;20039;-63
2021/03/27 17:45:37;;;;;;;4.78;1.70;;;;;;;;;;10355994;28;20035;-63
2021/03/27 17:50:44;;;;;;;7.15;1.42;;;;;;;;;;10392792;28;20040;-64
2021/03/27 17:55:45;;;;;;;8.25;1.65;;;;;;;;;;10372112;28;20043;-62
2021/03/27 18:00:48;;;;;;;8.68;1.20;;;;;;;;;;10384949;28;20063;-61
2021/03/27 18:05:47;;;;;;;11.48;1.15;;;;;;;;;;10382044;28;20542;-62
2021/03/27 18:10:47;;;;;;;8.15;1.63;;;;;;;;;;10386903;28;20029;-62
2021/03/27 18:15:57;;;;;;;9.35;1.40;;;;;;;;;;10398423;28;20123;-62
2021/03/27 18:21:00;;;;;;;9.68;1.90;;;;;;;;;;10410684;28;20029;-61
2021/03/27 18:26:03;;;;;;;11.10;1.75;;;;;;;;;;10384936;28;20180;-61
2021/03/27 18:31:00;;;;;;;6.05;1.85;;;;;;;;;;10414340;28;20028;-62
2021/03/27 18:36:07;;;;;;;8.33;2.10;;;;;;;;;;10421510;28;20032;-60
2021/03/27 18:41:05;;;;;;;7.55;1.38;;;;;;;;;;10409585;28;20032;-60
2021/03/27 18:46:13;;;;;;;10.95;1.70;;;;;;;;;;10417344;28;20032;-62
2021/03/27 18:51:11;;;;;;;8.73;2.13;;;;;;;;;;10417919;28;20073;-62
2021/03/27 18:56:09;;;;;;;;;;;;;;;;;;10424943;28;20035;-61
2021/03/27 19:01:08;;;;;;;10.88;2.35;;;;;;;;;;10417499;28;19912;-61
2021/03/27 19:06:07;;;;;;;8.48;1.65;;;;;;;;;;10414162;28;20035;-63
2021/03/27 19:11:13;;;;;;;6.22;1.30;;;;;;;;;;10388283;28;20517;-60
2021/03/27 19:16:12;;;;;;;7.78;1.55;;;;;;;;;;10421037;28;20507;-60
2021/03/27 19:21:18;;;;;;;5.85;1.67;;;;;;;;;;10398485;28;20032;-62
2021/03/27 19:26:35;;;;;;;10.02;2.53;;;;;;;;;;10408930;28;20040;-62
2021/03/27 19:31:35;;;;;;;6.07;2.25;;;;;;;;;;10417788;28;20039;-62
2021/03/27 19:36:33;;;;;;;4.40;1.73;;;;;;;;;;10392257;28;20051;-59
2021/03/27 19:41:35;;;;;;;9.95;3.50;;;;;;;;;;10412790;28;20055;-61
2021/03/27 19:46:38;;;;;;;6.78;3.00;;;;;;;;;;10401386;28;20040;-63
2021/03/27 19:52:11;;;;;;;7.55;2.72;;;;;;;;;;10383978;28;20101;-62
2021/03/27 19:57:15;;;;;;;5.35;2.33;;;;;;;;;;10269717;28;20028;-60
2021/03/27 20:02:19;;;;;;;7.40;3.83;;;;;;;;;;10409594;28;20043;-62
2021/03/27 20:07:23;;;;;;;11.68;5.28;;;;;;;;;;10400660;28;20557;-62
2021/03/27 20:12:20;;;;;;;10.07;3.88;;;;;;;;;;10397440;28;20035;-63
2021/03/27 20:17:22;;;;;;;12.90;3.90;;;;;;;;;;10406169;28;20032;-59
2021/03/27 20:22:27;;;;;;;7.05;3.40;;;;;;;;;;10392650;28;20476;-64
2021/03/27 20:27:54;;;;;;;9.52;3.85;;;;;;;;;;10397388;28;20064;-61
2021/03/27 20:33:11;;;;;;;8.90;2.53;;;;;;;;;;10390289;28;20126;-63
2021/03/27 20:38:17;;;;;;;6.63;2.33;;;;;;;;;;10405067;28;20032;-61
2021/03/27 20:43:16;;;;;;;8.70;1.95;;;;;;;;;;10392473;28;20036;-59
2021/03/27 20:48:16;;;;;;;6.50;1.95;;;;;;;;;;10408081;28;20454;-60
2021/03/27 20:53:32;;;;;;;5.53;2.90;;;;;;;;;;10364838;28;20402;-60
2021/03/27 20:58:45;;;;;;;9.90;4.60;;;;;;;;;;10404021;28;20125;-63
2021/03/27 21:04:03;;;;;;;18.10;4.82;;;;;;;;;;10398381;28;20051;-63
2021/03/27 21:09:20;;;;;;;6.03;3.05;;;;;;;;;;10382256;28;20563;-63
2021/03/27 21:14:36;;;;;;;6.30;2.35;;;;;;;;;;10382278;28;20040;-62
2021/03/27 21:19:40;;;;;;;3.75;3.00;;;;;;;;;;10356994;28;20510;-63
2021/03/27 21:24:52;;;;;;;7.45;2.80;;;;;;;;;;10392898;28;20040;-63
2021/03/27 21:30:09;;;;;;;8.05;2.72;;;;;;;;;;10361153;28;20035;-63
2021/03/27 21:35:09;;;;;;;5.00;2.03;;;;;;;;;;10386144;28;20064;-61
2021/03/27 21:40:07;;;;;;;3.75;2.30;;;;;;;;;;10382930;28;20060;-62
2021/03/27 21:45:10;;;;;;;4.50;1.40;;;;;;;;;;10369355;28;20136;-62
2021/03/27 21:50:19;;;;;;;8.95;2.65;;;;;;;;;;10381133;28;20490;-62
2021/03/27 21:55:35;;;;;;;3.95;1.25;;;;;;;;;;10381219;28;20040;-63
2021/03/27 22:00:48;;;;;;;13.70;3.33;;;;;;;;;;10356097;28;20198;-63
2021/03/27 22:05:45;;;;;;;9.40;2.25;;;;;;;;;;10358555;28;20095;-62
2021/03/27 22:10:50;;;;;;;6.93;1.80;;;;;;;;;;10392239;28;20082;-63
2021/03/27 22:16:07;;;;;;;6.72;1.85;;;;;;;;;;10380208;28;20513;-62
2021/03/27 22:21:10;;;;;;;7.40;2.42;;;;;;;;;;10350700;28;20028;-63
2021/03/27 22:26:10;;;;;;;5.22;2.42;;;;;;;;;;10378807;28;20047;-62
2021/03/27 22:31:22;;;;;;;12.30;2.08;;;;;;;;;;10387837;28;21089;-62
2021/03/27 22:36:29;;;;;;;5.78;1.48;;;;;;;;;;10385363;28;20103;-64
2021/03/27 22:41:33;;;;;;;14.38;2.20;;;;;;;;;;10398717;28;20498;-61
2021/03/27 22:46:51;;;;;;;19.38;3.10;;;;;;;;;;10374684;28;20040;-63
2021/03/27 22:51:55;;;;;;;4.38;2.35;;;;;;;;;;10358427;28;20045;-63
2021/03/27 22:56:58;;;;;;;3.83;1.63;;;;;;;;;;10377521;28;20020;-63
2021/03/27 23:01:56;;;;;;;3.65;1.33;;;;;;;;;;10382625;28;20394;-63
2021/03/27 23:06:58;;;;;;;5.00;1.50;;;;;;;;;;10373747;28;20035;-63
2021/03/27 23:11:59;;;;;;;6.65;1.60;;;;;;;;;;10391333;28;20653;-62
2021/03/27 23:16:58;;;;;;;8.63;1.63;;;;;;;;;;10378583;28;20056;-64
2021/03/27 23:22:14;;;;;;;4.85;1.67;;;;;;;;;;10358478;28;20489;-62
2021/03/27 23:27:20;;;;;;;6.15;1.90;;;;;;;;;;10363396;28;20044;-63
2021/03/27 23:32:43;;;;;;;7.82;2.40;;;;;;;;;;10352025;28;20049;-63
2021/03/27 23:37:44;;;;;;;12.18;2.60;;;;;;;;;;10314027;28;20098;-63
2021/03/27 23:42:56;;;;;;;10.80;2.10;;;;;;;;;;10351128;28;20567;-63
2021/03/27 23:48:09;;;;;;;4.50;1.25;;;;;;;;;;10365969;28;20128;-62
2021/03/27 23:53:08;;;;;;;5.30;1.08;;;;;;;;;;10354557;28;20037;-62
2021/03/27 23:58:05;;;;;;;5.88;1.13;;;;;;;;;;10333406;28;20086;-65
